sensor_id;sensor_type;location;lat;lon;timestamp;P1;durP1;ratioP1;P2;durP2;ratioP2
50968;SDS011;36982;51.474;7.228;2022-08-21T00:02:15;7.10;;;4.43;;
50968;SDS011;36982;51.474;7.228;2022-08-21T00:04:47;10.90;;;5.70;;
50968;SDS011;36982;51.474;7.228;2022-08-21T00:07:13;11.30;;;5.77;;
50968;SDS011;36982;51.474;7.228;2022-08-21T00:09:39;7.57;;;3.73;;
50968;SDS011;36982;51.474;7.228;2022-08-21T00:12:05;7.80;;;4.00;;
50968;SDS011;36982;51.474;7.228;2022-08-21T00:14:31;7.10;;;4.27;;
50968;SDS011;36982;51.474;7.228;2022-08-21T00:16:57;9.17;;;5.10;;
50968;SDS011;36982;51.474;7.228;2022-08-21T00:19:23;7.13;;;3.83;;
50968;SDS011;36982;51.474;7.228;2022-08-21T00:21:50;21.67;;;12.83;;
50968;SDS011;36982;51.474;7.228;2022-08-21T00:24:17;10.67;;;5.80;;
50968;SDS011;36982;51.474;7.228;2022-08-21T00:26:43;9.73;;;3.97;;
50968;SDS011;36982;51.474;7.228;2022-08-21T00:29:09;8.93;;;4.90;;
50968;SDS011;36982;51.474;7.228;2022-08-21T00:31:35;7.70;;;4.07;;
50968;SDS011;36982;51.474;7.228;2022-08-21T00:34:01;7.80;;;3.87;;
50968;SDS011;36982;51.474;7.228;2022-08-21T00:36:28;5.83;;;3.97;;
50968;SDS011;36982;51.474;7.228;2022-08-21T00:38:54;5.63;;;4.80;;
50968;SDS011;36982;51.474;7.228;2022-08-21T00:41:21;7.27;;;4.23;;
50968;SDS011;36982;51.474;7.228;2022-08-21T00:43:48;8.03;;;3.67;;
50968;SDS011;36982;51.474;7.228;2022-08-21T00:46:14;6.27;;;3.70;;
50968;SDS011;36982;51.474;7.228;2022-08-21T00:48:41;5.37;;;3.83;;
50968;SDS011;36982;51.474;7.228;2022-08-21T00:51:09;8.80;;;4.20;;
50968;SDS011;36982;51.474;7.228;2022-08-21T00:53:39;6.20;;;4.10;;
50968;SDS011;36982;51.474;7.228;2022-08-21T00:56:07;7.43;;;4.60;;
50968;SDS011;36982;51.474;7.228;2022-08-21T00:58:35;6.47;;;3.97;;
50968;SDS011;36982;51.474;7.228;2022-08-21T01:01:04;8.47;;;3.97;;
50968;SDS011;36982;51.474;7.228;2022-08-21T01:03:30;6.07;;;3.90;;
50968;SDS011;36982;51.474;7.228;2022-08-21T01:05:56;6.03;;;4.03;;
50968;SDS011;36982;51.474;7.228;2022-08-21T01:08:22;5.40;;;3.70;;
50968;SDS011;36982;51.474;7.228;2022-08-21T01:10:48;9.57;;;4.13;;
50968;SDS011;36982;51.474;7.228;2022-08-21T01:13:15;7.27;;;3.80;;
50968;SDS011;36982;51.474;7.228;2022-08-21T01:15:43;5.80;;;4.00;;
50968;SDS011;36982;51.474;7.228;2022-08-21T01:18:12;7.97;;;4.10;;
50968;SDS011;36982;51.474;7.228;2022-08-21T01:20:41;8.60;;;4.47;;
50968;SDS011;36982;51.474;7.228;2022-08-21T01:23:11;6.80;;;3.83;;
50968;SDS011;36982;51.474;7.228;2022-08-21T01:25:37;9.63;;;4.10;;
50968;SDS011;36982;51.474;7.228;2022-08-21T01:28:11;7.73;;;4.23;;
50968;SDS011;36982;51.474;7.228;2022-08-21T01:30:39;9.20;;;4.33;;
50968;SDS011;36982;51.474;7.228;2022-08-21T01:33:07;7.13;;;4.13;;
50968;SDS011;36982;51.474;7.228;2022-08-21T01:35:32;5.97;;;4.30;;
50968;SDS011;36982;51.474;7.228;2022-08-21T01:37:58;9.23;;;4.73;;
50968;SDS011;36982;51.474;7.228;2022-08-21T01:40:24;7.70;;;3.90;;
50968;SDS011;36982;51.474;7.228;2022-08-21T01:42:50;9.47;;;4.50;;
50968;SDS011;36982;51.474;7.228;2022-08-21T01:45:16;7.57;;;4.10;;
50968;SDS011;36982;51.474;7.228;2022-08-21T01:47:42;5.70;;;4.47;;
50968;SDS011;36982;51.474;7.228;2022-08-21T01:50:11;6.10;;;4.10;;
50968;SDS011;36982;51.474;7.228;2022-08-21T01:52:38;6.37;;;4.50;;
50968;SDS011;36982;51.474;7.228;2022-08-21T01:55:05;7.17;;;5.00;;
50968;SDS011;36982;51.474;7.228;2022-08-21T01:57:33;6.53;;;4.50;;
50968;SDS011;36982;51.474;7.228;2022-08-21T01:59:59;7.10;;;4.63;;
50968;SDS011;36982;51.474;7.228;2022-08-21T02:02:25;7.53;;;5.10;;
50968;SDS011;36982;51.474;7.228;2022-08-21T02:04:51;5.73;;;4.30;;
50968;SDS011;36982;51.474;7.228;2022-08-21T02:07:16;8.50;;;5.10;;
50968;SDS011;36982;51.474;7.228;2022-08-21T02:09:43;7.33;;;4.50;;
50968;SDS011;36982;51.474;7.228;2022-08-21T02:12:09;8.30;;;4.87;;
50968;SDS011;36982;51.474;7.228;2022-08-21T02:14:36;9.43;;;4.83;;
50968;SDS011;36982;51.474;7.228;2022-08-21T02:17:02;8.10;;;5.47;;
50968;SDS011;36982;51.474;7.228;2022-08-21T02:19:28;9.23;;;5.30;;
50968;SDS011;36982;51.474;7.228;2022-08-21T02:21:54;7.53;;;5.00;;
50968;SDS011;36982;51.474;7.228;2022-08-21T02:24:20;7.87;;;5.07;;
50968;SDS011;36982;51.474;7.228;2022-08-21T02:26:45;8.53;;;4.90;;
50968;SDS011;36982;51.474;7.228;2022-08-21T02:29:11;6.80;;;4.83;;
50968;SDS011;36982;51.474;7.228;2022-08-21T02:31:37;6.90;;;4.93;;
50968;SDS011;36982;51.474;7.228;2022-08-21T02:34:02;7.53;;;5.13;;
50968;SDS011;36982;51.474;7.228;2022-08-21T02:36:28;6.80;;;4.53;;
50968;SDS011;36982;51.474;7.228;2022-08-21T02:38:54;7.23;;;4.77;;
50968;SDS011;36982;51.474;7.228;2022-08-21T02:41:20;9.53;;;5.17;;
50968;SDS011;36982;51.474;7.228;2022-08-21T02:43:47;12.47;;;5.43;;
50968;SDS011;36982;51.474;7.228;2022-08-21T02:46:13;10.50;;;5.10;;
50968;SDS011;36982;51.474;7.228;2022-08-21T02:48:42;8.57;;;5.30;;
50968;SDS011;36982;51.474;7.228;2022-08-21T02:51:09;9.03;;;4.80;;
50968;SDS011;36982;51.474;7.228;2022-08-21T02:53:37;9.57;;;5.10;;
50968;SDS011;36982;51.474;7.228;2022-08-21T02:56:05;10.37;;;5.27;;
50968;SDS011;36982;51.474;7.228;2022-08-21T02:58:34;9.97;;;5.43;;
50968;SDS011;36982;51.474;7.228;2022-08-21T03:01:04;9.70;;;5.37;;
50968;SDS011;36982;51.474;7.228;2022-08-21T03:03:34;7.30;;;5.50;;
50968;SDS011;36982;51.474;7.228;2022-08-21T03:06:00;12.07;;;5.97;;
50968;SDS011;36982;51.474;7.228;2022-08-21T03:08:26;8.27;;;5.43;;
50968;SDS011;36982;51.474;7.228;2022-08-21T03:10:52;7.57;;;5.20;;
50968;SDS011;36982;51.474;7.228;2022-08-21T03:13:19;6.50;;;4.97;;
50968;SDS011;36982;51.474;7.228;2022-08-21T03:15:45;8.40;;;5.67;;
50968;SDS011;36982;51.474;7.228;2022-08-21T03:18:12;8.63;;;5.83;;
50968;SDS011;36982;51.474;7.228;2022-08-21T03:20:38;10.17;;;5.73;;
50968;SDS011;36982;51.474;7.228;2022-08-21T03:23:05;11.00;;;5.90;;
50968;SDS011;36982;51.474;7.228;2022-08-21T03:25:32;8.70;;;5.77;;
50968;SDS011;36982;51.474;7.228;2022-08-21T03:28:00;10.20;;;5.70;;
50968;SDS011;36982;51.474;7.228;2022-08-21T03:30:26;8.17;;;5.33;;
50968;SDS011;36982;51.474;7.228;2022-08-21T03:32:52;7.93;;;5.50;;
50968;SDS011;36982;51.474;7.228;2022-08-21T03:35:18;7.97;;;5.53;;
50968;SDS011;36982;51.474;7.228;2022-08-21T03:37:45;8.63;;;5.73;;
50968;SDS011;36982;51.474;7.228;2022-08-21T03:40:11;9.13;;;6.20;;
50968;SDS011;36982;51.474;7.228;2022-08-21T03:42:38;10.20;;;5.63;;
50968;SDS011;36982;51.474;7.228;2022-08-21T03:45:05;8.07;;;5.37;;
50968;SDS011;36982;51.474;7.228;2022-08-21T03:47:31;9.33;;;5.80;;
50968;SDS011;36982;51.474;7.228;2022-08-21T03:49:57;9.20;;;5.93;;
50968;SDS011;36982;51.474;7.228;2022-08-21T03:52:22;10.43;;;6.37;;
50968;SDS011;36982;51.474;7.228;2022-08-21T03:54:48;10.60;;;5.97;;
50968;SDS011;36982;51.474;7.228;2022-08-21T03:57:15;9.13;;;6.33;;
50968;SDS011;36982;51.474;7.228;2022-08-21T03:59:41;10.60;;;6.00;;
50968;SDS011;36982;51.474;7.228;2022-08-21T04:02:08;8.53;;;5.63;;
50968;SDS011;36982;51.474;7.228;2022-08-21T04:04:34;7.77;;;5.90;;
50968;SDS011;36982;51.474;7.228;2022-08-21T04:07:00;10.50;;;6.30;;
50968;SDS011;36982;51.474;7.228;2022-08-21T04:09:26;7.43;;;5.57;;
50968;SDS011;36982;51.474;7.228;2022-08-21T04:11:52;8.47;;;6.00;;
50968;SDS011;36982;51.474;7.228;2022-08-21T04:14:18;12.40;;;6.10;;
50968;SDS011;36982;51.474;7.228;2022-08-21T04:16:44;9.03;;;5.87;;
50968;SDS011;36982;51.474;7.228;2022-08-21T04:19:10;8.63;;;6.03;;
50968;SDS011;36982;51.474;7.228;2022-08-21T04:21:38;11.30;;;5.97;;
50968;SDS011;36982;51.474;7.228;2022-08-21T04:24:05;10.40;;;5.97;;
50968;SDS011;36982;51.474;7.228;2022-08-21T04:26:32;8.27;;;5.50;;
50968;SDS011;36982;51.474;7.228;2022-08-21T04:28:59;11.43;;;5.57;;
50968;SDS011;36982;51.474;7.228;2022-08-21T04:31:25;8.63;;;5.97;;
50968;SDS011;36982;51.474;7.228;2022-08-21T04:33:52;9.40;;;5.90;;
50968;SDS011;36982;51.474;7.228;2022-08-21T04:36:18;9.83;;;5.80;;
50968;SDS011;36982;51.474;7.228;2022-08-21T04:38:44;9.53;;;6.67;;
50968;SDS011;36982;51.474;7.228;2022-08-21T04:41:09;10.07;;;6.40;;
50968;SDS011;36982;51.474;7.228;2022-08-21T04:43:35;8.47;;;5.53;;
50968;SDS011;36982;51.474;7.228;2022-08-21T04:46:02;11.07;;;6.57;;
50968;SDS011;36982;51.474;7.228;2022-08-21T04:48:28;7.67;;;5.70;;
50968;SDS011;36982;51.474;7.228;2022-08-21T04:51:02;9.37;;;5.77;;
50968;SDS011;36982;51.474;7.228;2022-08-21T04:53:38;9.90;;;5.77;;
50968;SDS011;36982;51.474;7.228;2022-08-21T04:56:20;12.40;;;5.63;;
50968;SDS011;36982;51.474;7.228;2022-08-21T04:58:50;8.90;;;5.40;;
50968;SDS011;36982;51.474;7.228;2022-08-21T05:01:19;7.53;;;5.53;;
50968;SDS011;36982;51.474;7.228;2022-08-21T05:03:47;9.60;;;6.27;;
50968;SDS011;36982;51.474;7.228;2022-08-21T05:06:15;7.97;;;5.90;;
50968;SDS011;36982;51.474;7.228;2022-08-21T05:08:42;8.87;;;5.63;;
50968;SDS011;36982;51.474;7.228;2022-08-21T05:11:10;6.13;;;4.90;;
50968;SDS011;36982;51.474;7.228;2022-08-21T05:13:36;11.30;;;5.63;;
50968;SDS011;36982;51.474;7.228;2022-08-21T05:16:02;8.27;;;5.47;;
50968;SDS011;36982;51.474;7.228;2022-08-21T05:18:28;10.83;;;6.27;;
50968;SDS011;36982;51.474;7.228;2022-08-21T05:20:53;9.87;;;6.03;;
50968;SDS011;36982;51.474;7.228;2022-08-21T05:23:19;10.97;;;5.63;;
50968;SDS011;36982;51.474;7.228;2022-08-21T05:25:45;9.47;;;5.43;;
50968;SDS011;36982;51.474;7.228;2022-08-21T05:28:11;9.77;;;5.90;;
50968;SDS011;36982;51.474;7.228;2022-08-21T05:30:37;8.83;;;5.43;;
50968;SDS011;36982;51.474;7.228;2022-08-21T05:33:04;9.83;;;5.43;;
50968;SDS011;36982;51.474;7.228;2022-08-21T05:35:31;8.03;;;5.27;;
50968;SDS011;36982;51.474;7.228;2022-08-21T05:37:57;6.63;;;4.90;;
50968;SDS011;36982;51.474;7.228;2022-08-21T05:40:23;9.77;;;5.57;;
50968;SDS011;36982;51.474;7.228;2022-08-21T05:42:52;8.03;;;5.13;;
50968;SDS011;36982;51.474;7.228;2022-08-21T05:45:19;10.13;;;5.77;;
50968;SDS011;36982;51.474;7.228;2022-08-21T05:47:46;9.37;;;5.17;;
50968;SDS011;36982;51.474;7.228;2022-08-21T05:50:11;11.33;;;5.33;;
50968;SDS011;36982;51.474;7.228;2022-08-21T05:52:37;7.90;;;5.03;;
50968;SDS011;36982;51.474;7.228;2022-08-21T05:55:03;9.03;;;5.70;;
50968;SDS011;36982;51.474;7.228;2022-08-21T05:57:29;11.30;;;5.60;;
50968;SDS011;36982;51.474;7.228;2022-08-21T05:59:55;9.82;;;6.07;;
50968;SDS011;36982;51.474;7.228;2022-08-21T06:02:21;8.98;;;4.87;;
50968;SDS011;36982;51.474;7.228;2022-08-21T06:04:47;6.72;;;5.05;;
50968;SDS011;36982;51.474;7.228;2022-08-21T06:07:13;9.88;;;5.95;;
50968;SDS011;36982;51.474;7.228;2022-08-21T06:09:39;9.88;;;5.25;;
50968;SDS011;36982;51.474;7.228;2022-08-21T06:12:06;9.93;;;5.07;;
50968;SDS011;36982;51.474;7.228;2022-08-21T06:14:33;8.27;;;4.93;;
50968;SDS011;36982;51.474;7.228;2022-08-21T06:17:06;11.10;;;5.55;;
50968;SDS011;36982;51.474;7.228;2022-08-21T06:19:34;11.50;;;5.40;;
50968;SDS011;36982;51.474;7.228;2022-08-21T06:22:00;9.35;;;5.47;;
50968;SDS011;36982;51.474;7.228;2022-08-21T06:24:26;8.48;;;5.75;;
50968;SDS011;36982;51.474;7.228;2022-08-21T06:26:52;9.15;;;5.75;;
50968;SDS011;36982;51.474;7.228;2022-08-21T06:29:18;9.38;;;6.22;;
50968;SDS011;36982;51.474;7.228;2022-08-21T06:31:45;10.07;;;6.00;;
50968;SDS011;36982;51.474;7.228;2022-08-21T06:34:11;11.73;;;7.53;;
50968;SDS011;36982;51.474;7.228;2022-08-21T06:36:36;10.85;;;6.90;;
50968;SDS011;36982;51.474;7.228;2022-08-21T06:39:02;14.52;;;6.78;;
50968;SDS011;36982;51.474;7.228;2022-08-21T06:41:28;12.55;;;7.10;;
50968;SDS011;36982;51.474;7.228;2022-08-21T06:43:54;12.50;;;8.18;;
50968;SDS011;36982;51.474;7.228;2022-08-21T06:46:21;11.63;;;6.90;;
50968;SDS011;36982;51.474;7.228;2022-08-21T06:48:47;12.37;;;7.55;;
50968;SDS011;36982;51.474;7.228;2022-08-21T06:51:12;11.77;;;7.43;;
50968;SDS011;36982;51.474;7.228;2022-08-21T06:53:38;13.60;;;7.75;;
50968;SDS011;36982;51.474;7.228;2022-08-21T06:56:04;11.43;;;6.85;;
50968;SDS011;36982;51.474;7.228;2022-08-21T06:58:30;11.90;;;7.30;;
50968;SDS011;36982;51.474;7.228;2022-08-21T07:00:55;35.25;;;19.00;;
50968;SDS011;36982;51.474;7.228;2022-08-21T07:03:41;17.12;;;8.30;;
50968;SDS011;36982;51.474;7.228;2022-08-21T07:06:08;35.70;;;20.58;;
50968;SDS011;36982;51.474;7.228;2022-08-21T07:08:35;16.87;;;9.77;;
50968;SDS011;36982;51.474;7.228;2022-08-21T07:11:12;13.55;;;7.97;;
50968;SDS011;36982;51.474;7.228;2022-08-21T07:13:42;13.50;;;8.63;;
50968;SDS011;36982;51.474;7.228;2022-08-21T07:16:08;9.98;;;7.37;;
50968;SDS011;36982;51.474;7.228;2022-08-21T07:18:34;10.10;;;7.93;;
50968;SDS011;36982;51.474;7.228;2022-08-21T07:21:03;13.77;;;7.03;;
50968;SDS011;36982;51.474;7.228;2022-08-21T07:23:33;11.50;;;7.55;;
50968;SDS011;36982;51.474;7.228;2022-08-21T07:26:04;9.63;;;7.07;;
50968;SDS011;36982;51.474;7.228;2022-08-21T07:28:31;13.27;;;8.05;;
50968;SDS011;36982;51.474;7.228;2022-08-21T07:30:57;10.05;;;7.55;;
50968;SDS011;36982;51.474;7.228;2022-08-21T07:33:25;18.02;;;10.32;;
50968;SDS011;36982;51.474;7.228;2022-08-21T07:35:52;11.57;;;7.87;;
50968;SDS011;36982;51.474;7.228;2022-08-21T07:38:19;13.55;;;7.95;;
50968;SDS011;36982;51.474;7.228;2022-08-21T07:40:46;12.13;;;8.13;;
50968;SDS011;36982;51.474;7.228;2022-08-21T07:43:13;12.25;;;7.00;;
50968;SDS011;36982;51.474;7.228;2022-08-21T07:45:42;10.43;;;6.20;;
50968;SDS011;36982;51.474;7.228;2022-08-21T07:48:08;12.30;;;6.47;;
50968;SDS011;36982;51.474;7.228;2022-08-21T07:50:33;9.63;;;7.18;;
50968;SDS011;36982;51.474;7.228;2022-08-21T07:52:59;10.88;;;6.30;;
50968;SDS011;36982;51.474;7.228;2022-08-21T07:55:25;10.10;;;5.72;;
50968;SDS011;36982;51.474;7.228;2022-08-21T07:57:50;9.38;;;4.40;;
50968;SDS011;36982;51.474;7.228;2022-08-21T08:00:17;8.10;;;3.30;;
50968;SDS011;36982;51.474;7.228;2022-08-21T08:02:46;6.55;;;3.10;;
50968;SDS011;36982;51.474;7.228;2022-08-21T08:05:19;6.37;;;3.42;;
50968;SDS011;36982;51.474;7.228;2022-08-21T08:07:46;8.57;;;3.00;;
50968;SDS011;36982;51.474;7.228;2022-08-21T08:10:12;5.78;;;2.87;;
50968;SDS011;36982;51.474;7.228;2022-08-21T08:12:39;9.27;;;3.03;;
50968;SDS011;36982;51.474;7.228;2022-08-21T08:15:07;5.18;;;2.62;;
50968;SDS011;36982;51.474;7.228;2022-08-21T08:17:39;7.10;;;3.25;;
50968;SDS011;36982;51.474;7.228;2022-08-21T08:20:05;6.68;;;2.40;;
50968;SDS011;36982;51.474;7.228;2022-08-21T08:22:33;7.72;;;2.87;;
50968;SDS011;36982;51.474;7.228;2022-08-21T08:25:00;6.93;;;3.25;;
50968;SDS011;36982;51.474;7.228;2022-08-21T08:27:26;8.07;;;2.67;;
50968;SDS011;36982;51.474;7.228;2022-08-21T08:29:52;7.25;;;2.80;;
50968;SDS011;36982;51.474;7.228;2022-08-21T08:32:18;5.40;;;2.62;;
50968;SDS011;36982;51.474;7.228;2022-08-21T08:34:44;4.68;;;2.80;;
50968;SDS011;36982;51.474;7.228;2022-08-21T08:37:12;9.65;;;4.30;;
50968;SDS011;36982;51.474;7.228;2022-08-21T08:39:38;8.40;;;4.25;;
50968;SDS011;36982;51.474;7.228;2022-08-21T08:44:36;6.95;;;2.78;;
50968;SDS011;36982;51.474;7.228;2022-08-21T08:47:02;5.55;;;2.45;;
50968;SDS011;36982;51.474;7.228;2022-08-21T08:49:30;5.47;;;2.20;;
50968;SDS011;36982;51.474;7.228;2022-08-21T08:52:00;7.97;;;2.60;;
50968;SDS011;36982;51.474;7.228;2022-08-21T08:54:30;8.45;;;2.55;;
50968;SDS011;36982;51.474;7.228;2022-08-21T08:57:00;7.55;;;2.60;;
50968;SDS011;36982;51.474;7.228;2022-08-21T08:59:40;5.68;;;2.58;;
50968;SDS011;36982;51.474;7.228;2022-08-21T09:02:09;7.53;;;2.80;;
50968;SDS011;36982;51.474;7.228;2022-08-21T09:04:37;9.93;;;6.00;;
50968;SDS011;36982;51.474;7.228;2022-08-21T09:07:16;6.68;;;3.30;;
50968;SDS011;36982;51.474;7.228;2022-08-21T09:10:06;9.20;;;3.60;;
50968;SDS011;36982;51.474;7.228;2022-08-21T09:26:20;7.45;;;2.40;;
50968;SDS011;36982;51.474;7.228;2022-08-21T09:28:57;7.43;;;3.30;;
50968;SDS011;36982;51.474;7.228;2022-08-21T09:31:25;8.27;;;3.00;;
50968;SDS011;36982;51.474;7.228;2022-08-21T09:33:58;5.60;;;2.50;;
50968;SDS011;36982;51.474;7.228;2022-08-21T09:44:27;7.18;;;2.55;;
50968;SDS011;36982;51.474;7.228;2022-08-21T09:46:55;4.82;;;2.53;;
50968;SDS011;36982;51.474;7.228;2022-08-21T09:49:32;7.07;;;2.72;;
50968;SDS011;36982;51.474;7.228;2022-08-21T09:51:59;7.60;;;3.80;;
50968;SDS011;36982;51.474;7.228;2022-08-21T09:54:29;6.07;;;2.65;;
50968;SDS011;36982;51.474;7.228;2022-08-21T09:56:59;5.72;;;2.03;;
50968;SDS011;36982;51.474;7.228;2022-08-21T09:59:48;3.53;;;1.90;;
50968;SDS011;36982;51.474;7.228;2022-08-21T10:05:00;6.05;;;2.05;;
50968;SDS011;36982;51.474;7.228;2022-08-21T10:07:32;6.10;;;1.87;;
50968;SDS011;36982;51.474;7.228;2022-08-21T10:10:05;8.07;;;2.20;;
50968;SDS011;36982;51.474;7.228;2022-08-21T10:12:58;6.12;;;2.00;;
50968;SDS011;36982;51.474;7.228;2022-08-21T10:18:09;6.57;;;1.98;;
50968;SDS011;36982;51.474;7.228;2022-08-21T10:32:11;7.30;;;3.40;;
50968;SDS011;36982;51.474;7.228;2022-08-21T10:34:48;5.25;;;2.30;;
50968;SDS011;36982;51.474;7.228;2022-08-21T10:40:27;6.28;;;1.55;;
50968;SDS011;36982;51.474;7.228;2022-08-21T10:45:52;6.28;;;1.60;;
50968;SDS011;36982;51.474;7.228;2022-08-21T10:48:37;4.50;;;1.85;;
50968;SDS011;36982;51.474;7.228;2022-08-21T10:53:58;7.03;;;2.03;;
50968;SDS011;36982;51.474;7.228;2022-08-21T10:56:26;2.67;;;1.30;;
50968;SDS011;36982;51.474;7.228;2022-08-21T11:04:26;3.92;;;2.20;;
50968;SDS011;36982;51.474;7.228;2022-08-21T11:07:01;4.87;;;1.73;;
50968;SDS011;36982;51.474;7.228;2022-08-21T11:09:30;4.75;;;2.12;;
50968;SDS011;36982;51.474;7.228;2022-08-21T11:17:32;2.95;;;1.55;;
50968;SDS011;36982;51.474;7.228;2022-08-21T11:22:56;3.03;;;1.10;;
50968;SDS011;36982;51.474;7.228;2022-08-21T11:25:30;3.37;;;1.50;;
50968;SDS011;36982;51.474;7.228;2022-08-21T11:28:08;5.97;;;1.77;;
50968;SDS011;36982;51.474;7.228;2022-08-21T11:36:30;3.87;;;1.30;;
50968;SDS011;36982;51.474;7.228;2022-08-21T11:39:25;3.03;;;2.05;;
50968;SDS011;36982;51.474;7.228;2022-08-21T11:42:32;7.10;;;4.68;;
50968;SDS011;36982;51.474;7.228;2022-08-21T11:45:22;4.95;;;2.85;;
50968;SDS011;36982;51.474;7.228;2022-08-21T11:48:19;4.55;;;1.70;;
50968;SDS011;36982;51.474;7.228;2022-08-21T11:50:52;3.05;;;1.45;;
50968;SDS011;36982;51.474;7.228;2022-08-21T11:53:23;2.95;;;1.67;;
50968;SDS011;36982;51.474;7.228;2022-08-21T11:56:15;3.05;;;1.30;;
50968;SDS011;36982;51.474;7.228;2022-08-21T11:59:06;2.90;;;1.40;;
50968;SDS011;36982;51.474;7.228;2022-08-21T12:01:36;2.92;;;1.67;;
50968;SDS011;36982;51.474;7.228;2022-08-21T12:04:27;3.58;;;1.20;;
50968;SDS011;36982;51.474;7.228;2022-08-21T12:07:14;4.05;;;1.42;;
50968;SDS011;36982;51.474;7.228;2022-08-21T12:09:51;3.17;;;1.80;;
50968;SDS011;36982;51.474;7.228;2022-08-21T12:12:23;3.47;;;1.20;;
50968;SDS011;36982;51.474;7.228;2022-08-21T12:18:04;1.77;;;1.35;;
50968;SDS011;36982;51.474;7.228;2022-08-21T12:25:41;6.65;;;2.30;;
50968;SDS011;36982;51.474;7.228;2022-08-21T12:28:13;2.47;;;1.40;;
50968;SDS011;36982;51.474;7.228;2022-08-21T12:30:42;1.42;;;0.90;;
50968;SDS011;36982;51.474;7.228;2022-08-21T12:33:22;2.47;;;0.98;;
50968;SDS011;36982;51.474;7.228;2022-08-21T12:35:48;2.30;;;1.30;;
50968;SDS011;36982;51.474;7.228;2022-08-21T12:40:50;2.78;;;1.40;;
50968;SDS011;36982;51.474;7.228;2022-08-21T12:43:35;5.28;;;2.53;;
50968;SDS011;36982;51.474;7.228;2022-08-21T12:46:05;3.30;;;1.40;;
50968;SDS011;36982;51.474;7.228;2022-08-21T12:48:42;2.35;;;1.48;;
50968;SDS011;36982;51.474;7.228;2022-08-21T12:51:10;3.75;;;1.83;;
50968;SDS011;36982;51.474;7.228;2022-08-21T12:53:44;2.90;;;1.20;;
50968;SDS011;36982;51.474;7.228;2022-08-21T12:56:14;3.45;;;1.42;;
50968;SDS011;36982;51.474;7.228;2022-08-21T12:58:46;2.87;;;1.60;;
50968;SDS011;36982;51.474;7.228;2022-08-21T13:01:19;3.60;;;2.20;;
50968;SDS011;36982;51.474;7.228;2022-08-21T13:03:49;3.60;;;1.17;;
50968;SDS011;36982;51.474;7.228;2022-08-21T13:06:17;2.85;;;1.33;;
50968;SDS011;36982;51.474;7.228;2022-08-21T13:08:45;3.55;;;1.25;;
50968;SDS011;36982;51.474;7.228;2022-08-21T13:11:14;2.60;;;1.40;;
50968;SDS011;36982;51.474;7.228;2022-08-21T13:13:42;4.15;;;1.23;;
50968;SDS011;36982;51.474;7.228;2022-08-21T13:16:13;3.75;;;1.30;;
50968;SDS011;36982;51.474;7.228;2022-08-21T13:18:55;1.65;;;1.17;;
50968;SDS011;36982;51.474;7.228;2022-08-21T13:21:28;2.62;;;1.10;;
50968;SDS011;36982;51.474;7.228;2022-08-21T13:24:06;2.47;;;1.20;;
50968;SDS011;36982;51.474;7.228;2022-08-21T13:26:33;2.50;;;1.35;;
50968;SDS011;36982;51.474;7.228;2022-08-21T13:29:05;2.65;;;1.37;;
50968;SDS011;36982;51.474;7.228;2022-08-21T13:31:36;10.30;;;2.22;;
50968;SDS011;36982;51.474;7.228;2022-08-21T13:34:04;2.15;;;1.12;;
50968;SDS011;36982;51.474;7.228;2022-08-21T13:36:32;3.03;;;1.30;;
50968;SDS011;36982;51.474;7.228;2022-08-21T13:39:02;2.30;;;1.20;;
50968;SDS011;36982;51.474;7.228;2022-08-21T13:41:31;3.30;;;1.20;;
50968;SDS011;36982;51.474;7.228;2022-08-21T13:44:01;3.97;;;1.52;;
50968;SDS011;36982;51.474;7.228;2022-08-21T13:46:28;1.87;;;1.10;;
50968;SDS011;36982;51.474;7.228;2022-08-21T13:48:56;2.62;;;1.30;;
50968;SDS011;36982;51.474;7.228;2022-08-21T13:51:23;3.30;;;1.50;;
50968;SDS011;36982;51.474;7.228;2022-08-21T13:53:49;3.22;;;1.33;;
50968;SDS011;36982;51.474;7.228;2022-08-21T13:56:33;1.67;;;1.20;;
50968;SDS011;36982;51.474;7.228;2022-08-21T13:59:07;2.72;;;1.30;;
50968;SDS011;36982;51.474;7.228;2022-08-21T14:01:38;3.35;;;1.42;;
50968;SDS011;36982;51.474;7.228;2022-08-21T14:04:24;2.25;;;1.40;;
50968;SDS011;36982;51.474;7.228;2022-08-21T14:06:57;3.08;;;1.52;;
50968;SDS011;36982;51.474;7.228;2022-08-21T14:11:49;1.90;;;1.20;;
50968;SDS011;36982;51.474;7.228;2022-08-21T14:14:26;2.05;;;1.27;;
50968;SDS011;36982;51.474;7.228;2022-08-21T14:16:58;2.80;;;1.35;;
50968;SDS011;36982;51.474;7.228;2022-08-21T14:19:39;1.70;;;1.00;;
50968;SDS011;36982;51.474;7.228;2022-08-21T14:27:57;2.50;;;1.20;;
50968;SDS011;36982;51.474;7.228;2022-08-21T14:30:35;4.20;;;1.05;;
50968;SDS011;36982;51.474;7.228;2022-08-21T14:33:03;2.20;;;1.08;;
50968;SDS011;36982;51.474;7.228;2022-08-21T14:35:34;2.50;;;1.12;;
50968;SDS011;36982;51.474;7.228;2022-08-21T14:37:59;3.67;;;1.10;;
50968;SDS011;36982;51.474;7.228;2022-08-21T14:40:25;5.70;;;1.90;;
50968;SDS011;36982;51.474;7.228;2022-08-21T14:42:51;2.50;;;1.27;;
50968;SDS011;36982;51.474;7.228;2022-08-21T14:45:26;2.42;;;1.20;;
50968;SDS011;36982;51.474;7.228;2022-08-21T14:47:54;2.83;;;1.27;;
50968;SDS011;36982;51.474;7.228;2022-08-21T14:50:22;3.53;;;1.20;;
50968;SDS011;36982;51.474;7.228;2022-08-21T14:52:47;2.55;;;1.40;;
50968;SDS011;36982;51.474;7.228;2022-08-21T14:55:13;4.20;;;2.00;;
50968;SDS011;36982;51.474;7.228;2022-08-21T14:57:44;2.75;;;1.37;;
50968;SDS011;36982;51.474;7.228;2022-08-21T15:00:13;2.67;;;1.67;;
50968;SDS011;36982;51.474;7.228;2022-08-21T15:02:41;3.30;;;1.40;;
50968;SDS011;36982;51.474;7.228;2022-08-21T15:05:07;5.40;;;1.52;;
50968;SDS011;36982;51.474;7.228;2022-08-21T15:07:33;2.03;;;1.20;;
50968;SDS011;36982;51.474;7.228;2022-08-21T15:09:59;3.80;;;1.48;;
50968;SDS011;36982;51.474;7.228;2022-08-21T15:12:25;2.15;;;1.40;;
50968;SDS011;36982;51.474;7.228;2022-08-21T15:14:50;2.35;;;1.15;;
50968;SDS011;36982;51.474;7.228;2022-08-21T15:17:17;2.12;;;1.35;;
50968;SDS011;36982;51.474;7.228;2022-08-21T15:19:43;2.53;;;1.42;;
50968;SDS011;36982;51.474;7.228;2022-08-21T15:22:09;4.32;;;1.60;;
50968;SDS011;36982;51.474;7.228;2022-08-21T15:24:35;1.77;;;1.00;;
50968;SDS011;36982;51.474;7.228;2022-08-21T15:27:01;2.97;;;1.20;;
50968;SDS011;36982;51.474;7.228;2022-08-21T15:29:28;3.87;;;1.10;;
50968;SDS011;36982;51.474;7.228;2022-08-21T15:32:03;3.80;;;1.33;;
50968;SDS011;36982;51.474;7.228;2022-08-21T15:34:42;1.90;;;1.30;;
50968;SDS011;36982;51.474;7.228;2022-08-21T15:37:08;2.12;;;1.27;;
50968;SDS011;36982;51.474;7.228;2022-08-21T15:39:34;2.15;;;1.15;;
50968;SDS011;36982;51.474;7.228;2022-08-21T15:42:00;1.27;;;1.00;;
50968;SDS011;36982;51.474;7.228;2022-08-21T15:44:27;1.92;;;1.30;;
50968;SDS011;36982;51.474;7.228;2022-08-21T15:46:54;3.22;;;1.20;;
50968;SDS011;36982;51.474;7.228;2022-08-21T15:49:20;2.60;;;1.30;;
50968;SDS011;36982;51.474;7.228;2022-08-21T15:51:46;2.92;;;1.60;;
50968;SDS011;36982;51.474;7.228;2022-08-21T15:54:12;4.47;;;1.50;;
50968;SDS011;36982;51.474;7.228;2022-08-21T15:56:38;2.95;;;1.17;;
50968;SDS011;36982;51.474;7.228;2022-08-21T15:59:09;3.40;;;1.50;;
50968;SDS011;36982;51.474;7.228;2022-08-21T16:01:39;3.25;;;1.52;;
50968;SDS011;36982;51.474;7.228;2022-08-21T16:04:05;2.12;;;1.25;;
50968;SDS011;36982;51.474;7.228;2022-08-21T16:06:32;4.93;;;1.75;;
50968;SDS011;36982;51.474;7.228;2022-08-21T16:08:58;4.07;;;1.42;;
50968;SDS011;36982;51.474;7.228;2022-08-21T16:11:24;3.83;;;1.55;;
50968;SDS011;36982;51.474;7.228;2022-08-21T16:13:51;3.00;;;1.27;;
50968;SDS011;36982;51.474;7.228;2022-08-21T16:16:19;4.10;;;1.48;;
50968;SDS011;36982;51.474;7.228;2022-08-21T16:18:47;7.18;;;3.62;;
50968;SDS011;36982;51.474;7.228;2022-08-21T16:21:14;3.97;;;1.40;;
50968;SDS011;36982;51.474;7.228;2022-08-21T16:23:40;2.17;;;1.30;;
50968;SDS011;36982;51.474;7.228;2022-08-21T16:26:06;2.03;;;1.30;;